createdAt,value
2023-04-01T00:02:11.844Z,10.53
2023-04-01T00:05:14.633Z,10.43
2023-04-01T00:08:17.862Z,10.30
2023-04-01T00:11:21.026Z,10.20
2023-04-01T00:14:23.514Z,10.10
2023-04-01T00:17:26.447Z,9.99
2023-04-01T00:20:29.746Z,9.91
2023-04-01T00:23:32.429Z,9.89
2023-04-01T00:26:34.770Z,9.85
2023-04-01T00:29:37.485Z,9.83
2023-04-01T00:32:40.043Z,9.84
2023-04-01T00:35:43.078Z,9.83
2023-04-01T00:38:47.004Z,9.83
2023-04-01T00:41:49.907Z,9.82
2023-04-01T00:44:54.636Z,9.81
2023-04-01T00:48:01.044Z,9.80
2023-04-01T00:51:12.409Z,9.80
2023-04-01T00:54:18.696Z,9.77
2023-04-01T00:57:32.412Z,9.78
2023-04-01T01:00:37.069Z,9.78
2023-04-01T01:03:39.717Z,9.78
2023-04-01T01:06:53.795Z,9.77
2023-04-01T01:10:09.225Z,9.80
2023-04-01T01:13:36.997Z,9.81
2023-04-01T01:16:45.726Z,9.80
2023-04-01T01:20:05.931Z,9.79
2023-04-01T01:23:18.808Z,9.77
2023-04-01T01:26:43.196Z,9.76
2023-04-01T01:29:54.545Z,9.75
2023-04-01T01:33:07.880Z,9.75
2023-04-01T01:36:15.486Z,9.72
2023-04-01T01:39:19.638Z,9.71
2023-04-01T01:42:25.779Z,9.68
2023-04-01T01:45:30.348Z,9.70
2023-04-01T01:48:36.236Z,9.68
2023-04-01T01:51:40.179Z,9.68
2023-04-01T01:55:01.657Z,9.65
2023-04-01T01:58:12.909Z,9.66
2023-04-01T02:01:29.248Z,9.62
2023-04-01T02:04:33.134Z,9.61
2023-04-01T02:07:38.789Z,9.62
2023-04-01T02:10:47.344Z,9.61
2023-04-01T02:14:19.126Z,9.60
2023-04-01T02:17:27.707Z,9.57
2023-04-01T02:20:31.435Z,9.53
2023-04-01T02:23:39.078Z,9.52
2023-04-01T02:26:42.087Z,9.53
2023-04-01T02:29:44.865Z,9.50
2023-04-01T02:32:48.855Z,9.48
2023-04-01T02:35:51.658Z,9.45
2023-04-01T02:38:57.319Z,9.43
2023-04-01T02:42:01.428Z,9.41
2023-04-01T02:45:06.066Z,9.40
2023-04-01T02:48:08.713Z,9.39
2023-04-01T02:51:11.658Z,9.34
2023-04-01T02:54:14.186Z,9.33
2023-04-01T02:57:17.231Z,9.31
2023-04-01T03:00:19.938Z,9.30
2023-04-01T03:03:22.673Z,9.28
2023-04-01T03:06:25.191Z,9.27
2023-04-01T03:09:28.137Z,9.25
2023-04-01T03:12:30.707Z,9.25
2023-04-01T03:15:33.816Z,9.22
2023-04-01T03:18:36.464Z,9.22
2023-04-01T03:21:39.280Z,9.21
2023-04-01T03:24:41.740Z,9.23
2023-04-01T03:27:44.556Z,9.20
2023-04-01T03:30:47.136Z,9.18
2023-04-01T03:33:50.455Z,9.17
2023-04-01T03:36:53.417Z,9.17
2023-04-01T03:39:56.315Z,9.17
2023-04-01T03:42:58.758Z,9.15
2023-04-01T03:46:01.562Z,9.15
2023-04-01T03:49:12.411Z,9.14
2023-04-01T03:52:15.157Z,9.13
2023-04-01T03:55:19.260Z,9.13
2023-04-01T03:58:23.830Z,9.13
2023-04-01T04:01:26.348Z,9.12
2023-04-01T04:04:29.989Z,9.10
2023-04-01T04:07:32.499Z,9.08
2023-04-01T04:10:36.590Z,9.05
2023-04-01T04:13:39.011Z,9.02
2023-04-01T04:16:41.724Z,8.99
2023-04-01T04:19:44.794Z,8.98
2023-04-01T04:22:48.475Z,8.94
2023-04-01T04:25:58.792Z,8.93
2023-04-01T04:29:02.382Z,8.95
2023-04-01T04:32:05.002Z,8.93
2023-04-01T04:35:08.355Z,8.97
2023-04-01T04:38:10.953Z,8.95
2023-04-01T04:41:15.402Z,8.96
2023-04-01T04:44:18.361Z,8.95
2023-04-01T04:47:21.173Z,8.96
2023-04-01T04:50:25.001Z,8.97
2023-04-01T04:53:27.854Z,8.94
2023-04-01T04:56:32.019Z,8.92
2023-04-01T04:59:35.483Z,8.89
2023-04-01T05:02:38.379Z,8.86
2023-04-01T05:05:41.278Z,8.82
2023-04-01T05:08:45.461Z,8.76
2023-04-01T05:11:48.124Z,8.68
2023-04-01T05:14:50.643Z,8.66
2023-04-01T05:17:53.486Z,8.59
2023-04-01T05:20:56.573Z,8.55
2023-04-01T05:23:59.303Z,8.50
2023-04-01T05:27:02.250Z,8.43
2023-04-01T05:30:06.728Z,8.40
2023-04-01T05:33:12.757Z,8.35
2023-04-01T05:36:17.578Z,8.35
2023-04-01T05:39:19.985Z,8.38
2023-04-01T05:42:23.715Z,8.52
2023-04-01T05:45:26.199Z,8.66
2023-04-01T05:48:36.115Z,9.02
2023-04-01T05:51:38.693Z,9.32
2023-04-01T05:54:41.602Z,9.48
2023-04-01T05:57:46.282Z,9.69
2023-04-01T06:00:56.065Z,9.92
2023-04-01T06:04:05.431Z,10.01
2023-04-01T06:07:19.086Z,10.37
2023-04-01T06:10:26.619Z,10.62
2023-04-01T06:14:01.755Z,11.00
2023-04-01T06:17:41.519Z,11.06
2023-04-01T06:21:13.441Z,11.25
2023-04-01T06:24:34.475Z,11.86
2023-04-01T06:27:46.469Z,11.64
2023-04-01T06:31:11.065Z,11.10
2023-04-01T06:34:40.313Z,11.49
2023-04-01T06:38:06.755Z,11.53
2023-04-01T06:41:24.415Z,11.46
2023-04-01T06:44:59.744Z,11.89
2023-04-01T06:48:32.446Z,12.81
2023-04-01T06:52:00.421Z,13.09
2023-04-01T06:55:36.949Z,12.68
2023-04-01T06:58:47.762Z,12.75
2023-04-01T07:02:12.709Z,13.49
2023-04-01T07:05:16.741Z,13.64
2023-04-01T07:08:25.069Z,13.56
2023-04-01T07:11:35.544Z,13.27
2023-04-01T07:14:44.081Z,13.68
2023-04-01T07:17:52.534Z,13.87
2023-04-01T07:20:56.406Z,14.23
2023-04-01T07:24:07.077Z,14.87
2023-04-01T07:27:14.221Z,16.10
2023-04-01T07:30:20.636Z,14.02
2023-04-01T07:33:37.055Z,15.11
2023-04-01T07:36:41.689Z,17.30
2023-04-01T07:40:00.787Z,17.14
2023-04-01T07:43:18.306Z,18.29
2023-04-01T07:46:54.755Z,16.54
2023-04-01T07:50:12.276Z,15.71
2023-04-01T07:53:35.045Z,15.84
2023-04-01T07:56:50.619Z,16.29
2023-04-01T08:00:02.836Z,16.87
2023-04-01T08:03:31.309Z,17.27
2023-04-01T08:06:46.778Z,17.01
2023-04-01T08:09:59.356Z,17.71
2023-04-01T08:13:11.214Z,18.89
2023-04-01T08:16:36.224Z,18.54
2023-04-01T08:19:39.267Z,20.12
2023-04-01T08:22:44.502Z,19.24
2023-04-01T08:26:11.758Z,19.14
2023-04-01T08:29:23.335Z,20.63
2023-04-01T08:32:43.156Z,19.16
2023-04-01T08:36:03.476Z,19.05
2023-04-01T08:39:41.651Z,19.57
2023-04-01T08:42:51.696Z,19.31
2023-04-01T08:45:57.884Z,18.89
2023-04-01T08:49:31.640Z,18.44
2023-04-01T08:52:43.175Z,17.91
2023-04-01T08:56:04.461Z,17.77
2023-04-01T08:59:33.487Z,16.86
2023-04-01T09:02:53.874Z,16.54
2023-04-01T09:06:14.055Z,16.05
2023-04-01T09:09:37.039Z,15.89
2023-04-01T09:13:11.675Z,15.55
2023-04-01T09:16:22.642Z,16.27
2023-04-01T09:19:53.100Z,17.18
2023-04-01T09:22:58.420Z,18.32
2023-04-01T09:26:19.766Z,19.43
2023-04-01T09:29:25.082Z,19.11
2023-04-01T09:32:49.653Z,18.29
2023-04-01T09:36:31.353Z,18.62
2023-04-01T09:39:38.673Z,19.26
2023-04-01T09:43:07.838Z,18.68
2023-04-01T09:46:20.597Z,18.30
2023-04-01T09:49:35.070Z,19.28
2023-04-01T09:52:56.892Z,18.06
2023-04-01T09:56:05.638Z,17.20
2023-04-01T09:59:11.092Z,17.86
2023-04-01T10:02:37.265Z,18.13
2023-04-01T10:05:43.274Z,17.71
2023-04-01T10:08:58.578Z,18.91
2023-04-01T10:12:30.893Z,19.06
2023-04-01T10:15:38.072Z,18.04
2023-04-01T10:18:49.916Z,20.56
2023-04-01T10:22:01.848Z,19.72
2023-04-01T10:25:53.592Z,19.33
2023-04-01T10:29:24.823Z,18.77
2023-04-01T10:33:09.072Z,18.13
2023-04-01T10:36:14.171Z,18.11
2023-04-01T10:39:40.901Z,19.09
2023-04-01T10:43:03.224Z,17.64
2023-04-01T10:46:44.694Z,17.87
2023-04-01T10:50:34.466Z,18.64
2023-04-01T10:53:54.160Z,19.45
2023-04-01T10:57:20.651Z,20.51
2023-04-01T11:01:08.506Z,21.76
2023-04-01T11:04:40.907Z,22.90
2023-04-01T11:08:17.366Z,20.21
2023-04-01T11:11:35.831Z,20.96
2023-04-01T11:15:09.613Z,23.37
2023-04-01T11:18:24.187Z,22.40
2023-04-01T11:21:50.330Z,21.15
2023-04-01T11:25:40.656Z,23.16
2023-04-01T11:29:12.356Z,19.96
2023-04-01T11:32:40.425Z,18.26
2023-04-01T11:36:08.884Z,18.05
2023-04-01T11:40:00.794Z,17.74
2023-04-01T11:43:48.668Z,18.44
2023-04-01T11:47:17.142Z,19.72
2023-04-01T11:50:29.043Z,19.87
2023-04-01T11:54:12.387Z,18.58
2023-04-01T11:57:44.380Z,19.41
2023-04-01T12:01:19.168Z,19.29
2023-04-01T12:04:34.074Z,21.01
2023-04-01T12:07:57.595Z,21.40
2023-04-01T12:11:02.330Z,20.51
2023-04-01T12:14:38.417Z,20.70
2023-04-01T12:17:47.677Z,20.20
2023-04-01T12:20:55.707Z,22.90
2023-04-01T12:24:01.325Z,24.35
2023-04-01T12:27:32.877Z,25.59
2023-04-01T12:30:48.498Z,25.57
2023-04-01T12:34:14.946Z,23.76
2023-04-01T12:37:28.226Z,23.33
2023-04-01T12:40:33.859Z,23.27
2023-04-01T12:44:00.573Z,22.78
2023-04-01T12:47:24.515Z,21.89
2023-04-01T12:50:38.970Z,20.93
2023-04-01T12:54:08.917Z,20.23
2023-04-01T12:57:23.607Z,19.49
2023-04-01T13:00:50.662Z,20.19
2023-04-01T13:04:15.496Z,19.71
2023-04-01T13:07:33.890Z,20.36
2023-04-01T13:10:58.046Z,19.81
2023-04-01T13:14:29.110Z,19.56
2023-04-01T13:17:37.920Z,19.64
2023-04-01T13:20:53.200Z,19.13
2023-04-01T13:24:05.491Z,19.08
2023-04-01T13:27:41.567Z,18.27
2023-04-01T13:31:06.982Z,18.36
2023-04-01T13:34:53.811Z,18.29
2023-04-01T13:38:44.258Z,18.02
2023-04-01T13:41:55.738Z,18.74
2023-04-01T13:45:16.688Z,19.34
2023-04-01T13:48:40.539Z,19.40
2023-04-01T13:51:58.875Z,19.72
2023-04-01T13:55:20.772Z,19.37
2023-04-01T13:58:29.272Z,19.61
2023-04-01T14:02:19.696Z,19.53
2023-04-01T14:05:43.205Z,19.71
2023-04-01T14:09:24.023Z,19.17
2023-04-01T14:12:44.345Z,18.35
2023-04-01T14:15:52.665Z,18.51
2023-04-01T14:19:13.186Z,18.22
2023-04-01T14:22:16.271Z,18.23
2023-04-01T14:25:29.193Z,17.92
2023-04-01T14:28:55.182Z,17.78
2023-04-01T14:32:00.923Z,17.71
2023-04-01T14:35:26.439Z,17.52
2023-04-01T14:38:43.956Z,17.00
2023-04-01T14:42:08.736Z,16.95
2023-04-01T14:45:33.627Z,17.06
2023-04-01T14:48:39.906Z,17.31
2023-04-01T14:51:42.782Z,16.85
2023-04-01T14:54:50.783Z,17.00
2023-04-01T14:58:22.926Z,16.88
2023-04-01T15:01:49.053Z,16.85
2023-04-01T15:05:26.261Z,16.56
2023-04-01T15:08:34.954Z,16.61
2023-04-01T15:12:03.622Z,16.65
2023-04-01T15:15:15.397Z,16.72
2023-04-01T15:18:36.668Z,16.35
2023-04-01T15:21:51.530Z,16.23
2023-04-01T15:25:06.317Z,16.07
2023-04-01T15:28:51.237Z,15.98
2023-04-01T15:32:03.624Z,15.85
2023-04-01T15:35:33.736Z,15.73
2023-04-01T15:39:06.691Z,15.42
2023-04-01T15:42:24.651Z,15.35
2023-04-01T15:45:46.844Z,15.32
2023-04-01T15:49:13.994Z,15.24
2023-04-01T15:52:40.470Z,15.04
2023-04-01T15:55:48.658Z,15.02
2023-04-01T15:59:21.711Z,14.89
2023-04-01T16:02:37.122Z,14.90
2023-04-01T16:05:40.014Z,14.79
2023-04-01T16:08:48.364Z,14.63
2023-04-01T16:12:17.416Z,14.52
2023-04-01T16:15:30.311Z,14.41
2023-04-01T16:18:56.240Z,14.33
2023-04-01T16:22:09.361Z,14.22
2023-04-01T16:25:28.818Z,14.10
2023-04-01T16:28:40.152Z,14.01
2023-04-01T16:31:48.797Z,13.94
2023-04-01T16:35:16.252Z,13.80
2023-04-01T16:38:18.996Z,13.72
2023-04-01T16:41:36.885Z,13.60
2023-04-01T16:45:01.629Z,13.51
2023-04-01T16:48:14.124Z,13.37
2023-04-01T16:51:19.133Z,13.27
2023-04-01T16:54:59.554Z,13.18
2023-04-01T16:58:02.804Z,13.11
2023-04-01T17:01:14.720Z,13.05
2023-04-01T17:04:35.719Z,12.96
2023-04-01T17:07:47.344Z,12.83
2023-04-01T17:11:08.782Z,12.80
2023-04-01T17:14:30.404Z,12.66
2023-04-01T17:17:40.250Z,12.55
2023-04-01T17:20:51.127Z,12.46
2023-04-01T17:23:59.852Z,12.36
2023-04-01T17:27:16.483Z,12.32
2023-04-01T17:30:34.721Z,12.28
2023-04-01T17:33:54.196Z,12.19
2023-04-01T17:36:59.916Z,12.17
2023-04-01T17:40:27.221Z,12.08
2023-04-01T17:43:45.707Z,12.05
2023-04-01T17:47:26.053Z,11.96
2023-04-01T17:51:08.393Z,11.91
2023-04-01T17:54:28.541Z,11.82
2023-04-01T17:57:56.147Z,11.72
2023-04-01T18:01:07.614Z,11.68
2023-04-01T18:04:30.177Z,11.63
2023-04-01T18:08:06.949Z,11.54
2023-04-01T18:11:21.916Z,11.60
2023-04-01T18:14:56.195Z,11.59
2023-04-01T18:18:28.149Z,11.63
2023-04-01T18:21:43.880Z,11.63
2023-04-01T18:25:04.836Z,11.64
2023-04-01T18:28:07.242Z,11.71
2023-04-01T18:31:18.648Z,11.64
2023-04-01T18:35:14.018Z,11.57
2023-04-01T18:38:30.430Z,11.54
2023-04-01T18:41:38.735Z,11.50
2023-04-01T18:44:52.050Z,11.48
2023-04-01T18:48:12.287Z,11.46
2023-04-01T18:51:25.262Z,11.39
2023-04-01T18:54:35.884Z,11.36
2023-04-01T18:57:51.775Z,11.28
2023-04-01T19:01:03.722Z,11.21
2023-04-01T19:04:37.208Z,11.18
2023-04-01T19:07:53.586Z,11.09
2023-04-01T19:11:02.515Z,11.04
2023-04-01T19:14:22.926Z,11.00
2023-04-01T19:18:03.152Z,10.91
2023-04-01T19:21:08.700Z,10.87
2023-04-01T19:24:18.469Z,10.76
2023-04-01T19:27:31.017Z,10.71
2023-04-01T19:30:45.912Z,10.65
2023-04-01T19:33:54.864Z,10.60
2023-04-01T19:37:12.474Z,10.62
2023-04-01T19:40:44.218Z,10.55
2023-04-01T19:43:52.822Z,10.45
2023-04-01T19:47:12.578Z,10.34
2023-04-01T19:50:24.419Z,10.24
2023-04-01T19:53:43.989Z,10.16
2023-04-01T19:57:08.665Z,10.10
2023-04-01T20:00:37.346Z,10.00
2023-04-01T20:03:42.997Z,9.91
2023-04-01T20:06:53.694Z,9.85
2023-04-01T20:09:59.264Z,9.71
2023-04-01T20:13:17.441Z,9.59
2023-04-01T20:16:23.001Z,9.46
2023-04-01T20:19:42.982Z,9.33
2023-04-01T20:22:46.046Z,9.23
2023-04-01T20:25:58.475Z,9.14
2023-04-01T20:29:22.967Z,9.13
2023-04-01T20:32:36.942Z,9.09
2023-04-01T20:36:07.831Z,9.08
2023-04-01T20:39:31.848Z,9.17
2023-04-01T20:43:12.200Z,9.22
2023-04-01T20:46:35.952Z,9.27
2023-04-01T20:49:42.928Z,9.36
2023-04-01T20:52:56.668Z,9.44
2023-04-01T20:56:17.644Z,9.42
2023-04-01T20:59:38.917Z,9.50
2023-04-01T21:03:04.684Z,9.50
2023-04-01T21:06:31.771Z,9.50
2023-04-01T21:10:02.251Z,9.52
2023-04-01T21:13:43.238Z,9.54
2023-04-01T21:17:01.587Z,9.51
2023-04-01T21:20:24.931Z,9.55
2023-04-01T21:24:04.655Z,9.63
2023-04-01T21:27:44.705Z,9.73
2023-04-01T21:30:59.560Z,9.82
2023-04-01T21:34:29.651Z,9.87
2023-04-01T21:37:56.497Z,9.89
2023-04-01T21:41:03.932Z,9.95
2023-04-01T21:44:23.440Z,9.96
2023-04-01T21:47:35.195Z,9.94
2023-04-01T21:50:51.465Z,9.93
2023-04-01T21:54:19.718Z,9.90
2023-04-01T21:57:41.117Z,9.92
2023-04-01T22:01:08.350Z,9.91
2023-04-01T22:04:59.898Z,9.89
2023-04-01T22:08:30.370Z,9.88
2023-04-01T22:11:54.585Z,9.89
2023-04-01T22:15:18.424Z,9.92
2023-04-01T22:18:35.212Z,9.90
2023-04-01T22:22:02.533Z,9.86
2023-04-01T22:25:17.332Z,9.89
2023-04-01T22:28:29.045Z,9.91
2023-04-01T22:31:47.710Z,9.90
2023-04-01T22:35:05.893Z,9.90
2023-04-01T22:39:06.968Z,9.90
2023-04-01T22:42:21.797Z,9.85
2023-04-01T22:45:32.310Z,9.85
2023-04-01T22:48:43.037Z,9.83
2023-04-01T22:51:55.601Z,9.80
2023-04-01T22:55:04.011Z,9.76
2023-04-01T22:58:28.377Z,9.73
2023-04-01T23:01:38.117Z,9.73
2023-04-01T23:04:43.838Z,9.74
2023-04-01T23:08:29.111Z,9.78
2023-04-01T23:11:54.174Z,9.78
2023-04-01T23:15:01.710Z,9.78
2023-04-01T23:18:22.611Z,9.75
2023-04-01T23:21:34.841Z,9.71
2023-04-01T23:25:12.333Z,9.65
2023-04-01T23:28:14.727Z,9.61
2023-04-01T23:31:35.741Z,9.61
2023-04-01T23:34:38.354Z,9.58
2023-04-01T23:37:41.558Z,9.57
2023-04-01T23:40:44.371Z,9.60
2023-04-01T23:43:55.670Z,9.60
2023-04-01T23:47:00.021Z,9.59
2023-04-01T23:50:11.939Z,9.61
2023-04-01T23:53:29.904Z,9.60
2023-04-01T23:56:55.823Z,9.59
